sensor_id;sensor_type;location;lat;lon;timestamp;P1;durP1;ratioP1;P2;durP2;ratioP2
19621;SDS011;9958;33.196;-97.114;2024-02-15T00:01:57;0.93;;;0.90;;
19621;SDS011;9958;33.196;-97.114;2024-02-15T00:04:25;1.20;;;0.90;;
19621;SDS011;9958;33.196;-97.114;2024-02-15T00:06:54;1.35;;;1.20;;
19621;SDS011;9958;33.196;-97.114;2024-02-15T00:09:22;0.90;;;0.90;;
19621;SDS011;9958;33.196;-97.114;2024-02-15T00:11:52;1.73;;;1.15;;
19621;SDS011;9958;33.196;-97.114;2024-02-15T00:14:21;1.58;;;1.42;;
19621;SDS011;9958;33.196;-97.114;2024-02-15T00:16:49;1.35;;;1.08;;
19621;SDS011;9958;33.196;-97.114;2024-02-15T00:19:17;1.70;;;1.00;;
19621;SDS011;9958;33.196;-97.114;2024-02-15T00:21:47;0.98;;;0.93;;
19621;SDS011;9958;33.196;-97.114;2024-02-15T00:24:15;3.33;;;1.00;;
19621;SDS011;9958;33.196;-97.114;2024-02-15T00:26:43;1.35;;;1.08;;
19621;SDS011;9958;33.196;-97.114;2024-02-15T00:29:13;1.50;;;1.17;;
19621;SDS011;9958;33.196;-97.114;2024-02-15T00:31:42;1.05;;;0.88;;
19621;SDS011;9958;33.196;-97.114;2024-02-15T00:34:10;1.13;;;1.13;;
19621;SDS011;9958;33.196;-97.114;2024-02-15T00:36:41;0.85;;;0.70;;
19621;SDS011;9958;33.196;-97.114;2024-02-15T00:39:10;0.80;;;0.80;;
19621;SDS011;9958;33.196;-97.114;2024-02-15T00:41:39;1.77;;;1.10;;
19621;SDS011;9958;33.196;-97.114;2024-02-15T00:44:08;1.48;;;1.20;;
19621;SDS011;9958;33.196;-97.114;2024-02-15T00:46:38;1.17;;;1.02;;
19621;SDS011;9958;33.196;-97.114;2024-02-15T00:49:07;1.42;;;1.40;;
19621;SDS011;9958;33.196;-97.114;2024-02-15T00:51:36;1.27;;;1.17;;
19621;SDS011;9958;33.196;-97.114;2024-02-15T00:54:04;1.10;;;1.02;;
19621;SDS011;9958;33.196;-97.114;2024-02-15T00:56:33;1.42;;;1.33;;
19621;SDS011;9958;33.196;-97.114;2024-02-15T00:59:01;2.72;;;1.15;;
19621;SDS011;9958;33.196;-97.114;2024-02-15T01:01:30;1.33;;;1.20;;
19621;SDS011;9958;33.196;-97.114;2024-02-15T01:04:00;2.80;;;1.10;;
19621;SDS011;9958;33.196;-97.114;2024-02-15T01:06:29;0.90;;;0.90;;
19621;SDS011;9958;33.196;-97.114;2024-02-15T01:08:58;1.13;;;0.98;;
19621;SDS011;9958;33.196;-97.114;2024-02-15T01:11:28;3.10;;;1.00;;
19621;SDS011;9958;33.196;-97.114;2024-02-15T01:13:57;1.15;;;1.08;;
19621;SDS011;9958;33.196;-97.114;2024-02-15T01:16:26;2.40;;;1.10;;
19621;SDS011;9958;33.196;-97.114;2024-02-15T01:18:54;1.10;;;1.08;;
19621;SDS011;9958;33.196;-97.114;2024-02-15T01:21:24;1.45;;;1.30;;
19621;SDS011;9958;33.196;-97.114;2024-02-15T01:23:52;2.20;;;1.30;;
19621;SDS011;9958;33.196;-97.114;2024-02-15T01:26:21;1.20;;;1.10;;
19621;SDS011;9958;33.196;-97.114;2024-02-15T01:28:49;1.20;;;1.10;;
19621;SDS011;9958;33.196;-97.114;2024-02-15T01:31:17;1.10;;;1.10;;
19621;SDS011;9958;33.196;-97.114;2024-02-15T01:33:46;1.20;;;1.10;;
19621;SDS011;9958;33.196;-97.114;2024-02-15T01:36:14;1.83;;;1.17;;
19621;SDS011;9958;33.196;-97.114;2024-02-15T01:38:44;1.10;;;1.00;;
19621;SDS011;9958;33.196;-97.114;2024-02-15T01:41:12;1.75;;;1.38;;
19621;SDS011;9958;33.196;-97.114;2024-02-15T01:43:43;1.73;;;1.20;;
19621;SDS011;9958;33.196;-97.114;2024-02-15T01:46:13;1.27;;;1.17;;
19621;SDS011;9958;33.196;-97.114;2024-02-15T01:48:42;1.25;;;1.25;;
19621;SDS011;9958;33.196;-97.114;2024-02-15T01:51:12;1.40;;;1.10;;
19621;SDS011;9958;33.196;-97.114;2024-02-15T01:53:45;2.15;;;1.45;;
19621;SDS011;9958;33.196;-97.114;2024-02-15T01:56:14;1.20;;;1.10;;
19621;SDS011;9958;33.196;-97.114;2024-02-15T01:58:45;1.92;;;1.25;;
19621;SDS011;9958;33.196;-97.114;2024-02-15T02:01:14;2.75;;;1.00;;
19621;SDS011;9958;33.196;-97.114;2024-02-15T02:03:43;2.17;;;1.60;;
19621;SDS011;9958;33.196;-97.114;2024-02-15T02:06:12;2.28;;;1.38;;
19621;SDS011;9958;33.196;-97.114;2024-02-15T02:08:40;1.50;;;1.08;;
19621;SDS011;9958;33.196;-97.114;2024-02-15T02:11:10;1.15;;;1.05;;
19621;SDS011;9958;33.196;-97.114;2024-02-15T02:13:39;4.18;;;1.30;;
19621;SDS011;9958;33.196;-97.114;2024-02-15T02:18:54;1.75;;;1.17;;
19621;SDS011;9958;33.196;-97.114;2024-02-15T02:21:23;1.25;;;1.25;;
19621;SDS011;9958;33.196;-97.114;2024-02-15T02:23:52;2.38;;;1.60;;
19621;SDS011;9958;33.196;-97.114;2024-02-15T02:26:25;2.47;;;1.40;;
19621;SDS011;9958;33.196;-97.114;2024-02-15T02:28:53;1.25;;;1.08;;
19621;SDS011;9958;33.196;-97.114;2024-02-15T02:31:21;1.48;;;1.20;;
19621;SDS011;9958;33.196;-97.114;2024-02-15T02:33:51;2.90;;;1.30;;
19621;SDS011;9958;33.196;-97.114;2024-02-15T02:36:20;1.98;;;1.27;;
19621;SDS011;9958;33.196;-97.114;2024-02-15T02:38:52;1.40;;;1.30;;
19621;SDS011;9958;33.196;-97.114;2024-02-15T02:41:20;0.98;;;0.98;;
19621;SDS011;9958;33.196;-97.114;2024-02-15T02:43:50;3.53;;;1.30;;
19621;SDS011;9958;33.196;-97.114;2024-02-15T02:46:19;1.20;;;1.10;;
19621;SDS011;9958;33.196;-97.114;2024-02-15T02:48:47;2.20;;;1.42;;
19621;SDS011;9958;33.196;-97.114;2024-02-15T02:51:15;3.25;;;1.00;;
19621;SDS011;9958;33.196;-97.114;2024-02-15T02:53:44;1.30;;;1.20;;
19621;SDS011;9958;33.196;-97.114;2024-02-15T02:56:12;1.50;;;1.27;;
19621;SDS011;9958;33.196;-97.114;2024-02-15T02:58:40;1.15;;;1.15;;
19621;SDS011;9958;33.196;-97.114;2024-02-15T03:01:11;4.18;;;1.20;;
19621;SDS011;9958;33.196;-97.114;2024-02-15T03:03:39;2.50;;;1.13;;
19621;SDS011;9958;33.196;-97.114;2024-02-15T03:06:08;1.63;;;1.00;;
19621;SDS011;9958;33.196;-97.114;2024-02-15T03:08:36;1.33;;;1.23;;
19621;SDS011;9958;33.196;-97.114;2024-02-15T03:11:05;1.23;;;1.13;;
19621;SDS011;9958;33.196;-97.114;2024-02-15T03:13:33;1.13;;;1.10;;
19621;SDS011;9958;33.196;-97.114;2024-02-15T03:16:01;1.65;;;1.13;;
19621;SDS011;9958;33.196;-97.114;2024-02-15T03:18:32;1.55;;;1.38;;
19621;SDS011;9958;33.196;-97.114;2024-02-15T03:21:01;1.50;;;1.40;;
19621;SDS011;9958;33.196;-97.114;2024-02-15T03:23:29;1.40;;;1.15;;
19621;SDS011;9958;33.196;-97.114;2024-02-15T03:25:58;2.30;;;1.25;;
19621;SDS011;9958;33.196;-97.114;2024-02-15T03:28:29;3.25;;;1.20;;
19621;SDS011;9958;33.196;-97.114;2024-02-15T03:30:57;1.77;;;1.35;;
19621;SDS011;9958;33.196;-97.114;2024-02-15T03:33:26;1.25;;;1.02;;
19621;SDS011;9958;33.196;-97.114;2024-02-15T03:36:00;1.73;;;1.10;;
19621;SDS011;9958;33.196;-97.114;2024-02-15T03:38:29;2.42;;;1.30;;
19621;SDS011;9958;33.196;-97.114;2024-02-15T03:40:57;1.27;;;1.17;;
19621;SDS011;9958;33.196;-97.114;2024-02-15T03:43:26;1.38;;;1.27;;
19621;SDS011;9958;33.196;-97.114;2024-02-15T03:45:54;1.58;;;1.48;;
19621;SDS011;9958;33.196;-97.114;2024-02-15T03:48:23;1.30;;;1.30;;
19621;SDS011;9958;33.196;-97.114;2024-02-15T03:50:51;2.65;;;1.40;;
19621;SDS011;9958;33.196;-97.114;2024-02-15T03:53:21;1.50;;;1.40;;
19621;SDS011;9958;33.196;-97.114;2024-02-15T03:55:49;1.10;;;1.05;;
19621;SDS011;9958;33.196;-97.114;2024-02-15T03:58:19;1.38;;;1.25;;
19621;SDS011;9958;33.196;-97.114;2024-02-15T04:00:47;3.38;;;1.30;;
19621;SDS011;9958;33.196;-97.114;2024-02-15T04:03:15;0.98;;;0.90;;
19621;SDS011;9958;33.196;-97.114;2024-02-15T04:05:45;2.83;;;1.42;;
19621;SDS011;9958;33.196;-97.114;2024-02-15T04:08:14;1.35;;;1.20;;
19621;SDS011;9958;33.196;-97.114;2024-02-15T04:10:45;2.13;;;1.27;;
19621;SDS011;9958;33.196;-97.114;2024-02-15T04:13:14;1.50;;;1.40;;
19621;SDS011;9958;33.196;-97.114;2024-02-15T04:15:42;1.58;;;1.23;;
19621;SDS011;9958;33.196;-97.114;2024-02-15T04:18:12;1.30;;;1.20;;
19621;SDS011;9958;33.196;-97.114;2024-02-15T04:20:40;1.45;;;1.15;;
19621;SDS011;9958;33.196;-97.114;2024-02-15T04:23:12;1.60;;;1.50;;
19621;SDS011;9958;33.196;-97.114;2024-02-15T04:25:40;3.40;;;1.25;;
19621;SDS011;9958;33.196;-97.114;2024-02-15T04:28:11;1.40;;;1.30;;
19621;SDS011;9958;33.196;-97.114;2024-02-15T04:30:39;2.88;;;1.45;;
19621;SDS011;9958;33.196;-97.114;2024-02-15T04:33:08;1.90;;;1.10;;
19621;SDS011;9958;33.196;-97.114;2024-02-15T04:35:37;0.93;;;0.93;;
19621;SDS011;9958;33.196;-97.114;2024-02-15T04:38:05;1.30;;;1.20;;
19621;SDS011;9958;33.196;-97.114;2024-02-15T04:40:34;1.73;;;1.20;;
19621;SDS011;9958;33.196;-97.114;2024-02-15T04:43:05;1.33;;;1.23;;
19621;SDS011;9958;33.196;-97.114;2024-02-15T04:45:35;3.92;;;1.40;;
19621;SDS011;9958;33.196;-97.114;2024-02-15T04:48:04;1.58;;;1.30;;
19621;SDS011;9958;33.196;-97.114;2024-02-15T04:50:33;1.42;;;1.23;;
19621;SDS011;9958;33.196;-97.114;2024-02-15T04:53:01;1.23;;;1.13;;
19621;SDS011;9958;33.196;-97.114;2024-02-15T04:55:30;1.20;;;1.10;;
19621;SDS011;9958;33.196;-97.114;2024-02-15T04:57:59;1.45;;;1.35;;
19621;SDS011;9958;33.196;-97.114;2024-02-15T05:00:27;4.28;;;1.38;;
19621;SDS011;9958;33.196;-97.114;2024-02-15T05:02:57;1.10;;;1.00;;
19621;SDS011;9958;33.196;-97.114;2024-02-15T05:05:26;2.30;;;1.30;;
19621;SDS011;9958;33.196;-97.114;2024-02-15T05:07:54;2.72;;;1.27;;
19621;SDS011;9958;33.196;-97.114;2024-02-15T05:10:23;1.40;;;1.30;;
19621;SDS011;9958;33.196;-97.114;2024-02-15T05:12:51;1.40;;;1.30;;
19621;SDS011;9958;33.196;-97.114;2024-02-15T05:15:21;1.33;;;1.10;;
19621;SDS011;9958;33.196;-97.114;2024-02-15T05:17:51;1.63;;;1.08;;
19621;SDS011;9958;33.196;-97.114;2024-02-15T05:20:21;1.30;;;1.20;;
19621;SDS011;9958;33.196;-97.114;2024-02-15T05:22:52;1.35;;;1.25;;
19621;SDS011;9958;33.196;-97.114;2024-02-15T05:25:20;1.67;;;1.35;;
19621;SDS011;9958;33.196;-97.114;2024-02-15T05:27:52;1.63;;;1.50;;
19621;SDS011;9958;33.196;-97.114;2024-02-15T05:30:20;2.08;;;1.40;;
19621;SDS011;9958;33.196;-97.114;2024-02-15T05:32:49;2.80;;;1.40;;
19621;SDS011;9958;33.196;-97.114;2024-02-15T05:35:18;2.45;;;1.55;;
19621;SDS011;9958;33.196;-97.114;2024-02-15T05:37:49;3.15;;;1.60;;
19621;SDS011;9958;33.196;-97.114;2024-02-15T05:40:18;2.17;;;1.27;;
19621;SDS011;9958;33.196;-97.114;2024-02-15T05:42:46;2.50;;;1.45;;
19621;SDS011;9958;33.196;-97.114;2024-02-15T05:45:27;1.73;;;1.30;;
19621;SDS011;9958;33.196;-97.114;2024-02-15T05:47:58;1.58;;;1.20;;
19621;SDS011;9958;33.196;-97.114;2024-02-15T05:50:28;1.20;;;1.10;;
19621;SDS011;9958;33.196;-97.114;2024-02-15T05:52:56;1.48;;;1.38;;
19621;SDS011;9958;33.196;-97.114;2024-02-15T05:55:26;1.73;;;1.45;;
19621;SDS011;9958;33.196;-97.114;2024-02-15T05:57:56;2.13;;;1.67;;
19621;SDS011;9958;33.196;-97.114;2024-02-15T06:00:25;2.53;;;1.50;;
19621;SDS011;9958;33.196;-97.114;2024-02-15T06:02:55;3.13;;;1.27;;
19621;SDS011;9958;33.196;-97.114;2024-02-15T06:05:23;1.83;;;1.67;;
19621;SDS011;9958;33.196;-97.114;2024-02-15T06:07:53;3.72;;;1.60;;
19621;SDS011;9958;33.196;-97.114;2024-02-15T06:10:23;1.60;;;1.50;;
19621;SDS011;9958;33.196;-97.114;2024-02-15T06:12:51;1.48;;;1.38;;
19621;SDS011;9958;33.196;-97.114;2024-02-15T06:15:20;2.38;;;1.60;;
19621;SDS011;9958;33.196;-97.114;2024-02-15T06:17:49;1.70;;;1.60;;
19621;SDS011;9958;33.196;-97.114;2024-02-15T06:20:17;1.90;;;1.50;;
19621;SDS011;9958;33.196;-97.114;2024-02-15T06:22:46;2.22;;;1.67;;
19621;SDS011;9958;33.196;-97.114;2024-02-15T06:25:17;1.83;;;1.38;;
19621;SDS011;9958;33.196;-97.114;2024-02-15T06:27:46;1.65;;;1.48;;
19621;SDS011;9958;33.196;-97.114;2024-02-15T06:30:16;1.95;;;1.60;;
19621;SDS011;9958;33.196;-97.114;2024-02-15T06:33:02;1.80;;;1.42;;
19621;SDS011;9958;33.196;-97.114;2024-02-15T06:35:46;3.17;;;1.52;;
19621;SDS011;9958;33.196;-97.114;2024-02-15T06:38:31;2.58;;;1.40;;
19621;SDS011;9958;33.196;-97.114;2024-02-15T06:41:18;2.38;;;1.45;;
19621;SDS011;9958;33.196;-97.114;2024-02-15T06:43:46;1.48;;;1.38;;
19621;SDS011;9958;33.196;-97.114;2024-02-15T06:46:15;2.13;;;1.55;;
19621;SDS011;9958;33.196;-97.114;2024-02-15T06:48:44;1.35;;;1.27;;
19621;SDS011;9958;33.196;-97.114;2024-02-15T06:51:13;1.50;;;1.40;;
19621;SDS011;9958;33.196;-97.114;2024-02-15T06:53:41;2.40;;;1.80;;
19621;SDS011;9958;33.196;-97.114;2024-02-15T06:56:10;2.22;;;1.45;;
19621;SDS011;9958;33.196;-97.114;2024-02-15T06:58:41;2.08;;;1.73;;
19621;SDS011;9958;33.196;-97.114;2024-02-15T07:01:09;1.40;;;1.30;;
19621;SDS011;9958;33.196;-97.114;2024-02-15T07:03:39;2.88;;;1.20;;
19621;SDS011;9958;33.196;-97.114;2024-02-15T07:06:07;2.38;;;1.67;;
19621;SDS011;9958;33.196;-97.114;2024-02-15T07:08:35;2.40;;;1.70;;
19621;SDS011;9958;33.196;-97.114;2024-02-15T07:11:05;2.40;;;1.70;;
19621;SDS011;9958;33.196;-97.114;2024-02-15T07:13:35;1.48;;;1.38;;
19621;SDS011;9958;33.196;-97.114;2024-02-15T07:16:08;2.13;;;2.03;;
19621;SDS011;9958;33.196;-97.114;2024-02-15T07:18:37;1.60;;;1.50;;
19621;SDS011;9958;33.196;-97.114;2024-02-15T07:21:05;2.83;;;1.70;;
19621;SDS011;9958;33.196;-97.114;2024-02-15T07:23:36;4.47;;;1.90;;
19621;SDS011;9958;33.196;-97.114;2024-02-15T07:26:05;1.83;;;1.63;;
19621;SDS011;9958;33.196;-97.114;2024-02-15T07:28:33;3.83;;;1.50;;
19621;SDS011;9958;33.196;-97.114;2024-02-15T07:31:01;3.55;;;1.77;;
19621;SDS011;9958;33.196;-97.114;2024-02-15T07:33:32;3.28;;;1.63;;
19621;SDS011;9958;33.196;-97.114;2024-02-15T07:36:00;3.45;;;1.60;;
19621;SDS011;9958;33.196;-97.114;2024-02-15T07:38:29;4.03;;;1.90;;
19621;SDS011;9958;33.196;-97.114;2024-02-15T07:41:00;1.95;;;1.75;;
19621;SDS011;9958;33.196;-97.114;2024-02-15T07:43:28;1.80;;;1.70;;
19621;SDS011;9958;33.196;-97.114;2024-02-15T07:45:58;3.38;;;1.83;;
19621;SDS011;9958;33.196;-97.114;2024-02-15T07:48:27;2.05;;;1.83;;
19621;SDS011;9958;33.196;-97.114;2024-02-15T07:50:57;1.50;;;1.40;;
19621;SDS011;9958;33.196;-97.114;2024-02-15T07:53:25;2.10;;;2.00;;
19621;SDS011;9958;33.196;-97.114;2024-02-15T07:55:54;3.40;;;1.85;;
19621;SDS011;9958;33.196;-97.114;2024-02-15T07:58:23;7.10;;;2.00;;
19621;SDS011;9958;33.196;-97.114;2024-02-15T08:00:52;1.95;;;1.83;;
19621;SDS011;9958;33.196;-97.114;2024-02-15T08:03:21;3.65;;;1.73;;
19621;SDS011;9958;33.196;-97.114;2024-02-15T08:05:50;2.05;;;1.63;;
19621;SDS011;9958;33.196;-97.114;2024-02-15T08:08:20;1.58;;;1.30;;
19621;SDS011;9958;33.196;-97.114;2024-02-15T08:10:49;2.22;;;1.73;;
19621;SDS011;9958;33.196;-97.114;2024-02-15T08:13:17;1.63;;;1.52;;
19621;SDS011;9958;33.196;-97.114;2024-02-15T08:15:48;1.95;;;1.77;;
19621;SDS011;9958;33.196;-97.114;2024-02-15T08:18:18;1.70;;;1.60;;
19621;SDS011;9958;33.196;-97.114;2024-02-15T08:20:46;2.83;;;1.85;;
19621;SDS011;9958;33.196;-97.114;2024-02-15T08:23:14;4.05;;;1.80;;
19621;SDS011;9958;33.196;-97.114;2024-02-15T08:25:44;4.50;;;2.30;;
19621;SDS011;9958;33.196;-97.114;2024-02-15T08:28:13;4.35;;;1.75;;
19621;SDS011;9958;33.196;-97.114;2024-02-15T08:30:41;3.83;;;1.90;;
19621;SDS011;9958;33.196;-97.114;2024-02-15T08:33:09;3.30;;;1.77;;
19621;SDS011;9958;33.196;-97.114;2024-02-15T08:35:38;2.50;;;1.83;;
19621;SDS011;9958;33.196;-97.114;2024-02-15T08:38:07;2.10;;;1.50;;
19621;SDS011;9958;33.196;-97.114;2024-02-15T08:40:35;1.50;;;1.38;;
19621;SDS011;9958;33.196;-97.114;2024-02-15T08:43:05;1.48;;;1.38;;
19621;SDS011;9958;33.196;-97.114;2024-02-15T08:45:33;1.98;;;1.70;;
19621;SDS011;9958;33.196;-97.114;2024-02-15T08:48:03;1.40;;;1.30;;
19621;SDS011;9958;33.196;-97.114;2024-02-15T08:50:31;3.53;;;1.80;;
19621;SDS011;9958;33.196;-97.114;2024-02-15T08:53:00;3.28;;;1.48;;
19621;SDS011;9958;33.196;-97.114;2024-02-15T08:55:31;2.00;;;1.77;;
19621;SDS011;9958;33.196;-97.114;2024-02-15T08:58:01;2.30;;;1.60;;
19621;SDS011;9958;33.196;-97.114;2024-02-15T09:00:31;1.48;;;1.38;;
19621;SDS011;9958;33.196;-97.114;2024-02-15T09:03:00;1.98;;;1.77;;
19621;SDS011;9958;33.196;-97.114;2024-02-15T09:05:28;1.92;;;1.77;;
19621;SDS011;9958;33.196;-97.114;2024-02-15T09:07:56;9.60;;;1.83;;
19621;SDS011;9958;33.196;-97.114;2024-02-15T09:10:25;1.35;;;1.25;;
19621;SDS011;9958;33.196;-97.114;2024-02-15T09:12:53;1.60;;;1.50;;
19621;SDS011;9958;33.196;-97.114;2024-02-15T09:15:21;1.75;;;1.60;;
19621;SDS011;9958;33.196;-97.114;2024-02-15T09:17:52;1.80;;;1.58;;
19621;SDS011;9958;33.196;-97.114;2024-02-15T09:20:20;1.52;;;1.42;;
19621;SDS011;9958;33.196;-97.114;2024-02-15T09:22:51;1.40;;;1.30;;
19621;SDS011;9958;33.196;-97.114;2024-02-15T09:25:20;1.60;;;1.50;;
19621;SDS011;9958;33.196;-97.114;2024-02-15T09:27:49;1.88;;;1.40;;
19621;SDS011;9958;33.196;-97.114;2024-02-15T09:30:19;3.10;;;1.63;;
19621;SDS011;9958;33.196;-97.114;2024-02-15T09:32:50;2.85;;;1.20;;
19621;SDS011;9958;33.196;-97.114;2024-02-15T09:35:20;7.93;;;1.70;;
19621;SDS011;9958;33.196;-97.114;2024-02-15T09:37:49;1.98;;;1.70;;
19621;SDS011;9958;33.196;-97.114;2024-02-15T09:40:18;3.85;;;1.77;;
19621;SDS011;9958;33.196;-97.114;2024-02-15T09:42:47;4.75;;;1.70;;
19621;SDS011;9958;33.196;-97.114;2024-02-15T09:45:16;1.98;;;1.70;;
19621;SDS011;9958;33.196;-97.114;2024-02-15T09:47:46;1.73;;;1.63;;
19621;SDS011;9958;33.196;-97.114;2024-02-15T09:50:17;1.90;;;1.55;;
19621;SDS011;9958;33.196;-97.114;2024-02-15T09:52:49;1.98;;;1.77;;
19621;SDS011;9958;33.196;-97.114;2024-02-15T09:55:18;2.47;;;1.92;;
19621;SDS011;9958;33.196;-97.114;2024-02-15T09:57:49;1.92;;;1.83;;
19621;SDS011;9958;33.196;-97.114;2024-02-15T10:00:17;3.95;;;1.48;;
19621;SDS011;9958;33.196;-97.114;2024-02-15T10:02:47;3.47;;;1.60;;
19621;SDS011;9958;33.196;-97.114;2024-02-15T10:05:19;5.43;;;1.60;;
19621;SDS011;9958;33.196;-97.114;2024-02-15T10:07:48;2.30;;;1.67;;
19621;SDS011;9958;33.196;-97.114;2024-02-15T10:10:17;1.88;;;1.67;;
19621;SDS011;9958;33.196;-97.114;2024-02-15T10:12:46;1.83;;;1.73;;
19621;SDS011;9958;33.196;-97.114;2024-02-15T10:15:30;2.75;;;1.67;;
19621;SDS011;9958;33.196;-97.114;2024-02-15T10:18:00;1.67;;;1.50;;
19621;SDS011;9958;33.196;-97.114;2024-02-15T10:20:30;5.97;;;1.83;;
19621;SDS011;9958;33.196;-97.114;2024-02-15T10:23:09;1.55;;;1.45;;
19621;SDS011;9958;33.196;-97.114;2024-02-15T10:25:38;2.85;;;1.60;;
19621;SDS011;9958;33.196;-97.114;2024-02-15T10:28:07;2.45;;;1.65;;
19621;SDS011;9958;33.196;-97.114;2024-02-15T10:30:37;7.28;;;2.30;;
19621;SDS011;9958;33.196;-97.114;2024-02-15T10:33:09;2.58;;;1.40;;
19621;SDS011;9958;33.196;-97.114;2024-02-15T10:35:39;4.65;;;1.65;;
19621;SDS011;9958;33.196;-97.114;2024-02-15T10:38:07;1.63;;;1.50;;
19621;SDS011;9958;33.196;-97.114;2024-02-15T10:40:38;3.42;;;1.90;;
19621;SDS011;9958;33.196;-97.114;2024-02-15T10:43:08;3.20;;;1.73;;
19621;SDS011;9958;33.196;-97.114;2024-02-15T10:45:38;2.10;;;1.65;;
19621;SDS011;9958;33.196;-97.114;2024-02-15T10:48:07;2.15;;;1.63;;
19621;SDS011;9958;33.196;-97.114;2024-02-15T10:50:36;4.85;;;1.90;;
19621;SDS011;9958;33.196;-97.114;2024-02-15T10:53:16;3.13;;;1.60;;
19621;SDS011;9958;33.196;-97.114;2024-02-15T10:55:52;1.85;;;1.42;;
19621;SDS011;9958;33.196;-97.114;2024-02-15T10:58:25;4.35;;;1.92;;
19621;SDS011;9958;33.196;-97.114;2024-02-15T11:01:00;1.83;;;1.63;;
19621;SDS011;9958;33.196;-97.114;2024-02-15T11:03:35;2.83;;;1.70;;
19621;SDS011;9958;33.196;-97.114;2024-02-15T11:06:09;3.55;;;2.10;;
19621;SDS011;9958;33.196;-97.114;2024-02-15T11:08:38;2.13;;;1.92;;
19621;SDS011;9958;33.196;-97.114;2024-02-15T11:11:07;5.80;;;1.70;;
19621;SDS011;9958;33.196;-97.114;2024-02-15T11:13:40;2.08;;;1.80;;
19621;SDS011;9958;33.196;-97.114;2024-02-15T11:16:08;1.70;;;1.52;;
19621;SDS011;9958;33.196;-97.114;2024-02-15T11:18:42;1.92;;;1.83;;
19621;SDS011;9958;33.196;-97.114;2024-02-15T11:21:18;2.60;;;2.00;;
19621;SDS011;9958;33.196;-97.114;2024-02-15T11:24:29;2.53;;;1.73;;
19621;SDS011;9958;33.196;-97.114;2024-02-15T11:26:58;3.83;;;1.85;;
19621;SDS011;9958;33.196;-97.114;2024-02-15T11:29:48;1.88;;;1.67;;
19621;SDS011;9958;33.196;-97.114;2024-02-15T11:32:36;1.98;;;1.70;;
19621;SDS011;9958;33.196;-97.114;2024-02-15T11:35:05;2.00;;;1.80;;
19621;SDS011;9958;33.196;-97.114;2024-02-15T11:37:51;4.55;;;1.90;;
19621;SDS011;9958;33.196;-97.114;2024-02-15T11:40:20;2.13;;;1.75;;
19621;SDS011;9958;33.196;-97.114;2024-02-15T11:42:49;3.45;;;1.67;;
19621;SDS011;9958;33.196;-97.114;2024-02-15T11:45:19;2.92;;;1.80;;
19621;SDS011;9958;33.196;-97.114;2024-02-15T11:47:48;2.05;;;1.90;;
19621;SDS011;9958;33.196;-97.114;2024-02-15T11:50:18;1.60;;;1.50;;
19621;SDS011;9958;33.196;-97.114;2024-02-15T11:52:47;2.10;;;1.98;;
19621;SDS011;9958;33.196;-97.114;2024-02-15T11:55:21;2.30;;;1.70;;
19621;SDS011;9958;33.196;-97.114;2024-02-15T11:57:58;1.98;;;1.70;;
19621;SDS011;9958;33.196;-97.114;2024-02-15T12:00:31;4.40;;;1.98;;
19621;SDS011;9958;33.196;-97.114;2024-02-15T12:03:16;13.32;;;2.47;;
19621;SDS011;9958;33.196;-97.114;2024-02-15T12:06:02;2.30;;;1.60;;
19621;SDS011;9958;33.196;-97.114;2024-02-15T12:08:49;3.15;;;1.83;;
19621;SDS011;9958;33.196;-97.114;2024-02-15T12:11:37;2.70;;;1.67;;
19621;SDS011;9958;33.196;-97.114;2024-02-15T12:14:23;2.10;;;1.80;;
19621;SDS011;9958;33.196;-97.114;2024-02-15T12:17:08;2.20;;;1.95;;
19621;SDS011;9958;33.196;-97.114;2024-02-15T12:19:54;2.80;;;2.05;;
19621;SDS011;9958;33.196;-97.114;2024-02-15T12:22:24;2.75;;;2.38;;
19621;SDS011;9958;33.196;-97.114;2024-02-15T12:24:57;3.60;;;2.30;;
19621;SDS011;9958;33.196;-97.114;2024-02-15T12:27:28;2.47;;;2.03;;
19621;SDS011;9958;33.196;-97.114;2024-02-15T12:29:57;3.03;;;2.17;;
19621;SDS011;9958;33.196;-97.114;2024-02-15T12:32:27;2.38;;;2.00;;
19621;SDS011;9958;33.196;-97.114;2024-02-15T12:35:09;3.80;;;2.17;;
19621;SDS011;9958;33.196;-97.114;2024-02-15T12:37:42;1.73;;;1.63;;
19621;SDS011;9958;33.196;-97.114;2024-02-15T12:40:11;1.77;;;1.67;;
19621;SDS011;9958;33.196;-97.114;2024-02-15T12:42:44;4.80;;;2.22;;
19621;SDS011;9958;33.196;-97.114;2024-02-15T12:45:16;2.33;;;1.90;;
19621;SDS011;9958;33.196;-97.114;2024-02-15T12:47:46;2.53;;;2.25;;
19621;SDS011;9958;33.196;-97.114;2024-02-15T12:50:15;4.88;;;1.90;;
19621;SDS011;9958;33.196;-97.114;2024-02-15T12:52:45;2.17;;;1.98;;
19621;SDS011;9958;33.196;-97.114;2024-02-15T12:55:15;5.97;;;2.35;;
19621;SDS011;9958;33.196;-97.114;2024-02-15T12:57:47;2.97;;;2.28;;
19621;SDS011;9958;33.196;-97.114;2024-02-15T13:00:17;2.00;;;1.80;;
19621;SDS011;9958;33.196;-97.114;2024-02-15T13:02:47;3.63;;;2.53;;
19621;SDS011;9958;33.196;-97.114;2024-02-15T13:05:16;6.88;;;2.53;;
19621;SDS011;9958;33.196;-97.114;2024-02-15T13:07:45;4.38;;;2.22;;
19621;SDS011;9958;33.196;-97.114;2024-02-15T13:10:14;6.32;;;2.08;;
19621;SDS011;9958;33.196;-97.114;2024-02-15T13:12:43;2.25;;;2.00;;
19621;SDS011;9958;33.196;-97.114;2024-02-15T13:15:13;5.65;;;2.35;;
19621;SDS011;9958;33.196;-97.114;2024-02-15T13:17:43;2.88;;;2.58;;
19621;SDS011;9958;33.196;-97.114;2024-02-15T13:20:12;3.55;;;2.58;;
19621;SDS011;9958;33.196;-97.114;2024-02-15T13:22:41;4.03;;;2.03;;
19621;SDS011;9958;33.196;-97.114;2024-02-15T13:25:10;4.00;;;1.90;;
19621;SDS011;9958;33.196;-97.114;2024-02-15T13:27:38;5.50;;;2.55;;
19621;SDS011;9958;33.196;-97.114;2024-02-15T13:30:10;4.72;;;2.30;;
19621;SDS011;9958;33.196;-97.114;2024-02-15T13:32:39;2.40;;;2.08;;
19621;SDS011;9958;33.196;-97.114;2024-02-15T13:35:08;2.63;;;2.40;;
19621;SDS011;9958;33.196;-97.114;2024-02-15T13:37:40;2.78;;;2.30;;
19621;SDS011;9958;33.196;-97.114;2024-02-15T13:40:12;3.95;;;2.28;;
19621;SDS011;9958;33.196;-97.114;2024-02-15T13:42:42;3.33;;;2.33;;
19621;SDS011;9958;33.196;-97.114;2024-02-15T13:45:19;5.32;;;2.50;;
19621;SDS011;9958;33.196;-97.114;2024-02-15T13:47:49;2.38;;;2.15;;
19621;SDS011;9958;33.196;-97.114;2024-02-15T13:50:19;2.95;;;2.33;;
19621;SDS011;9958;33.196;-97.114;2024-02-15T13:52:47;4.75;;;2.80;;
19621;SDS011;9958;33.196;-97.114;2024-02-15T13:55:16;2.90;;;2.60;;
19621;SDS011;9958;33.196;-97.114;2024-02-15T13:57:46;3.60;;;2.63;;
19621;SDS011;9958;33.196;-97.114;2024-02-15T14:00:15;4.60;;;2.53;;
19621;SDS011;9958;33.196;-97.114;2024-02-15T14:02:50;3.35;;;2.80;;
19621;SDS011;9958;33.196;-97.114;2024-02-15T14:05:19;4.45;;;2.83;;
19621;SDS011;9958;33.196;-97.114;2024-02-15T14:07:50;4.43;;;2.30;;
19621;SDS011;9958;33.196;-97.114;2024-02-15T14:10:20;3.95;;;2.80;;
19621;SDS011;9958;33.196;-97.114;2024-02-15T14:12:50;4.75;;;2.75;;
19621;SDS011;9958;33.196;-97.114;2024-02-15T14:15:20;3.88;;;2.33;;
19621;SDS011;9958;33.196;-97.114;2024-02-15T14:17:51;3.65;;;2.47;;
19621;SDS011;9958;33.196;-97.114;2024-02-15T14:20:19;2.35;;;2.15;;
19621;SDS011;9958;33.196;-97.114;2024-02-15T14:22:48;3.97;;;2.38;;
19621;SDS011;9958;33.196;-97.114;2024-02-15T14:25:21;3.22;;;2.40;;
19621;SDS011;9958;33.196;-97.114;2024-02-15T14:27:50;2.78;;;2.55;;
19621;SDS011;9958;33.196;-97.114;2024-02-15T14:30:21;3.55;;;2.30;;
19621;SDS011;9958;33.196;-97.114;2024-02-15T14:33:08;4.50;;;2.80;;
19621;SDS011;9958;33.196;-97.114;2024-02-15T14:35:39;3.53;;;2.58;;
19621;SDS011;9958;33.196;-97.114;2024-02-15T14:38:08;4.75;;;2.92;;
19621;SDS011;9958;33.196;-97.114;2024-02-15T14:40:38;2.88;;;2.55;;
19621;SDS011;9958;33.196;-97.114;2024-02-15T14:43:08;6.57;;;2.92;;
19621;SDS011;9958;33.196;-97.114;2024-02-15T14:45:38;2.83;;;2.53;;
19621;SDS011;9958;33.196;-97.114;2024-02-15T14:48:09;4.10;;;2.85;;
19621;SDS011;9958;33.196;-97.114;2024-02-15T14:50:38;3.20;;;2.80;;
19621;SDS011;9958;33.196;-97.114;2024-02-15T14:53:06;3.78;;;2.53;;
19621;SDS011;9958;33.196;-97.114;2024-02-15T14:55:35;3.20;;;2.72;;